Time;durP1;ratioP1;P1;durP2;ratioP2;P2;SDS_P1;SDS_P2;PMS_P1;PMS_P2;Temp;Humidity;BMP_temperature;BMP_pressure;BME280_temperature;BME280_humidity;BME280_pressure;Samples;Min_cycle;Max_cycle;Signal;HPM_P1;HPM_P2
2023/11/12 00:02:19;;;;;;;81.70;39.00;;;;;;;6.04;100.00;99337.13;105586;1259;99310;-77
2023/11/12 00:05:05;;;;;;;77.00;38.20;;;;;;;6.08;100.00;99341.80;105544;1259;97954;-78
2023/11/12 00:07:51;;;;;;;82.50;39.90;;;;;;;6.11;100.00;99344.81;105540;1259;97959;-77
2023/11/12 00:10:37;;;;;;;78.90;36.80;;;;;;;6.14;100.00;99348.36;105650;1257;102083;-77
2023/11/12 00:13:22;;;;;;;82.20;38.20;;;;;;;6.17;100.00;99347.37;105618;1256;99140;-78
2023/11/12 00:16:08;;;;;;;82.40;38.80;;;;;;;6.20;100.00;99350.63;105689;1253;98049;-77
2023/11/12 00:18:54;;;;;;;84.00;40.70;;;;;;;6.20;100.00;99348.67;105477;1253;97981;-78
2023/11/12 00:21:41;;;;;;;76.40;36.40;;;;;;;6.19;100.00;99345.42;105692;1254;98405;-78
2023/11/12 00:24:28;;;;;;;80.70;37.50;;;;;;;6.17;100.00;99346.70;105857;1259;101345;-77
2023/11/12 00:27:14;;;;;;;81.60;39.30;;;;;;;6.16;100.00;99344.69;105701;1260;100326;-77
2023/11/12 00:29:59;;;;;;;84.80;38.10;;;;;;;6.17;100.00;99349.04;105695;1253;98765;-77
2023/11/12 00:32:44;;;;;;;73.70;36.50;;;;;;;6.16;100.00;99350.74;105542;1259;98737;-77
2023/11/12 00:35:30;;;;;;;72.10;33.60;;;;;;;6.15;100.00;99347.44;105795;1253;98434;-78
2023/11/12 00:38:16;;;;;;;69.60;35.90;;;;;;;6.16;100.00;99346.54;105732;1253;101311;-77
2023/11/12 00:41:01;;;;;;;74.10;35.90;;;;;;;6.14;100.00;99344.23;105864;1257;99153;-78
2023/11/12 00:43:47;;;;;;;71.40;35.80;;;;;;;6.13;100.00;99341.11;105710;1259;98581;-78
2023/11/12 00:46:32;;;;;;;73.50;34.70;;;;;;;6.14;100.00;99341.54;105842;1256;98738;-78
2023/11/12 00:49:18;;;;;;;75.50;35.90;;;;;;;6.15;100.00;99346.38;105642;1258;97842;-78
2023/11/12 00:52:05;;;;;;;73.00;33.90;;;;;;;6.14;100.00;99351.88;105689;1271;102587;-76
2023/11/12 00:54:50;;;;;;;67.20;33.40;;;;;;;6.10;100.00;99348.98;105634;1253;99000;-78
2023/11/12 00:57:36;;;;;;;67.70;33.70;;;;;;;6.08;100.00;99350.84;105728;1258;98987;-78
2023/11/12 01:00:22;;;;;;;68.50;35.10;;;;;;;6.05;100.00;99347.56;105757;1254;97868;-78
2023/11/12 01:03:12;;;;;;;67.20;33.80;;;;;;;6.02;100.00;99344.88;105779;1254;98540;-77
2023/11/12 01:05:57;;;;;;;66.90;32.30;;;;;;;6.01;100.00;99346.17;105833;1258;101378;-78
2023/11/12 01:08:43;;;;;;;68.90;32.70;;;;;;;6.01;100.00;99343.92;105717;1253;100343;-78
2023/11/12 01:11:29;;;;;;;66.10;34.80;;;;;;;6.01;100.00;99346.92;105867;1259;98614;-78
2023/11/12 01:14:15;;;;;;;66.80;31.10;;;;;;;6.01;100.00;99349.45;105624;1253;98039;-77
2023/11/12 01:17:01;;;;;;;66.60;32.20;;;;;;;5.99;100.00;99349.02;105738;1253;98048;-77
2023/11/12 01:19:47;;;;;;;70.50;34.20;;;;;;;5.96;100.00;99348.61;105666;1254;101373;-78
2023/11/12 01:22:32;;;;;;;63.60;30.90;;;;;;;5.97;100.00;99351.20;105786;1254;99421;-78
2023/11/12 01:25:18;;;;;;;66.10;32.40;;;;;;;5.98;100.00;99353.17;105810;1253;99067;-77
2023/11/12 01:28:04;;;;;;;65.10;33.30;;;;;;;5.97;100.00;99350.42;105782;1259;97945;-79
2023/11/12 01:30:49;;;;;;;67.30;32.70;;;;;;;5.97;100.00;99349.03;105781;1259;98565;-77
2023/11/12 01:33:35;;;;;;;65.60;33.50;;;;;;;5.97;100.00;99350.09;105848;1258;101366;-78
2023/11/12 01:36:20;;;;;;;64.00;32.30;;;;;;;5.96;100.00;99350.98;105823;1258;100157;-77
2023/11/12 01:39:08;;;;;;;68.60;33.40;;;;;;;5.94;100.00;99351.01;105495;1256;99029;-77
2023/11/12 01:41:53;;;;;;;60.90;31.80;;;;;;;5.92;100.00;99353.35;105600;1254;98039;-77
2023/11/12 01:44:39;;;;;;;67.20;33.50;;;;;;;5.93;100.00;99359.46;105577;1259;98377;-78
2023/11/12 01:47:25;;;;;;;62.60;30.40;;;;;;;5.92;100.00;99361.39;105712;1259;101371;-77
2023/11/12 01:50:14;;;;;;;66.60;31.50;;;;;;;5.91;100.00;99366.09;105671;1259;100381;-78
2023/11/12 01:53:01;;;;;;;63.30;30.70;;;;;;;5.91;100.00;99364.86;105535;1259;98041;-77
2023/11/12 01:55:47;;;;;;;61.00;30.50;;;;;;;5.89;100.00;99364.89;105630;1254;97988;-77
2023/11/12 01:58:33;;;;;;;58.30;29.40;;;;;;;5.88;100.00;99373.14;105619;1259;99833;-76
2023/11/12 02:01:19;;;;;;;60.90;30.90;;;;;;;5.87;100.00;99373.48;105629;1259;103225;-78
2023/11/12 02:04:07;;;;;;;58.70;29.00;;;;;;;5.83;100.00;99378.00;105617;1259;100333;-77
2023/11/12 02:06:53;;;;;;;57.80;29.40;;;;;;;5.81;100.00;99380.86;105600;1253;99383;-77
2023/11/12 02:09:39;;;;;;;55.30;28.40;;;;;;;5.80;100.00;99379.66;105405;1253;97892;-78
2023/11/12 02:12:24;;;;;;;56.40;28.40;;;;;;;5.79;100.00;99383.66;105740;1254;98475;-78
2023/11/12 02:15:14;;;;;;;50.80;27.10;;;;;;;5.80;100.00;99383.88;105724;1259;101341;-78
2023/11/12 02:18:00;;;;;;;51.20;26.00;;;;;;;5.78;100.00;99381.98;105820;1258;99144;-77
2023/11/12 02:20:46;;;;;;;52.50;28.00;;;;;;;5.75;100.00;99378.66;105716;1254;99246;-76
2023/11/12 02:23:37;;;;;;;53.20;26.60;;;;;;;5.73;100.00;99378.76;105463;1259;98002;-77
2023/11/12 02:26:23;;;;;;;51.70;27.70;;;;;;;5.69;100.00;99377.48;105557;1254;98457;-77
2023/11/12 02:29:09;;;;;;;46.70;24.80;;;;;;;5.65;100.00;99376.90;105435;1259;101410;-76
2023/11/12 02:31:55;;;;;;;49.60;25.50;;;;;;;5.64;100.00;99375.94;105534;1268;99293;-77
2023/11/12 02:34:42;;;;;;;49.60;25.00;;;;;;;5.62;100.00;99375.02;105513;1254;98560;-77
2023/11/12 02:37:29;;;;;;;50.90;27.10;;;;;;;5.59;100.00;99378.70;105630;1254;98008;-77
2023/11/12 02:40:14;;;;;;;57.00;27.30;;;;;;;5.58;100.00;99377.78;105691;1259;97957;-78
2023/11/12 02:43:02;;;;;;;54.40;25.70;;;;;;;5.56;100.00;99379.06;105744;1253;101376;-78
2023/11/12 02:45:48;;;;;;;54.30;27.20;;;;;;;5.55;100.00;99382.38;107760;1253;100094;-78
2023/11/12 02:49:03;;;;;;;53.50;25.80;;;;;;;5.54;100.00;99387.98;105571;1259;97909;-77
2023/11/12 02:51:49;;;;;;;53.80;26.60;;;;;;;5.54;100.00;99387.95;105564;1257;97893;-77
2023/11/12 02:54:35;;;;;;;46.50;24.30;;;;;;;5.55;100.00;99386.77;105593;1259;98750;-77
2023/11/12 02:57:22;;;;;;;50.70;25.90;;;;;;;5.54;100.00;99388.81;105727;1253;101323;-77
2023/11/12 03:00:08;;;;;;;48.70;24.90;;;;;;;5.52;100.00;99389.67;105591;1260;99381;-77
2023/11/12 03:03:00;;;;;;;51.50;26.70;;;;;;;5.50;100.00;99389.36;105586;1253;98038;-77
2023/11/12 03:05:45;;;;;;;49.80;24.80;;;;;;;5.52;100.00;99386.21;105634;1253;98758;-77
2023/11/12 03:08:32;;;;;;;61.50;27.90;;;;;;;5.56;100.00;99387.24;105703;1253;98483;-77
2023/11/12 03:11:17;;;;;;;51.00;25.00;;;;;;;5.58;100.00;99387.64;105608;1259;102768;-78
2023/11/12 03:14:03;;;;;;;52.70;27.60;;;;;;;5.62;100.00;99388.83;105649;1259;99141;-77
2023/11/12 03:16:49;;;;;;;53.00;25.30;;;;;;;5.63;100.00;99390.45;105703;1253;99357;-77
2023/11/12 03:19:35;;;;;;;61.30;28.90;;;;;;;5.62;100.00;99391.13;105865;1253;97976;-77
2023/11/12 03:22:22;;;;;;;58.30;28.60;;;;;;;5.59;100.00;99394.07;105763;1259;98477;-78
2023/11/12 03:25:09;;;;;;;53.70;27.40;;;;;;;5.59;100.00;99395.12;105770;1253;101336;-77
2023/11/12 03:27:55;;;;;;;58.60;26.30;;;;;;;5.60;100.00;99393.59;105784;1259;99075;-78
2023/11/12 03:30:40;;;;;;;56.00;26.90;;;;;;;5.60;100.00;99395.40;105651;1259;98453;-77
2023/11/12 03:33:28;;;;;;;59.50;27.30;;;;;;;5.61;100.00;99394.75;105579;1259;97874;-77
2023/11/12 03:36:15;;;;;;;55.50;26.40;;;;;;;5.62;100.00;99393.17;105732;1254;97976;-78
2023/11/12 03:39:01;;;;;;;57.00;25.60;;;;;;;5.63;100.00;99390.02;105658;1259;101459;-78
2023/11/12 03:41:46;;;;;;;58.10;26.40;;;;;;;5.65;100.00;99394.95;105704;1259;99366;-77
2023/11/12 03:44:32;;;;;;;55.00;26.10;;;;;;;5.66;100.00;99394.98;105709;1254;98983;-78
2023/11/12 03:47:17;;;;;;;55.20;26.80;;;;;;;5.68;100.00;99394.83;105853;1258;98408;-79
2023/11/12 03:50:03;;;;;;;51.60;25.40;;;;;;;5.69;100.00;99398.48;105811;1260;98103;-78
2023/11/12 03:52:49;;;;;;;57.10;26.60;;;;;;;5.70;100.00;99395.06;105902;1259;101399;-78
2023/11/12 03:55:34;;;;;;;55.80;25.50;;;;;;;5.69;100.00;99394.98;105989;1257;99691;-77
2023/11/12 03:58:20;;;;;;;55.80;26.00;;;;;;;5.69;100.00;99388.96;105907;1259;99043;-78
2023/11/12 04:01:05;;;;;;;52.30;24.50;;;;;;;5.68;100.00;99386.46;105886;1253;98449;-78
2023/11/12 04:03:52;;;;;;;57.10;26.10;;;;;;;5.66;100.00;99385.41;105817;1259;98395;-78
2023/11/12 04:06:38;;;;;;;59.30;27.30;;;;;;;5.66;100.00;99385.05;105704;1257;102601;-78
2023/11/12 04:09:23;;;;;;;57.10;26.60;;;;;;;5.66;100.00;99381.13;105869;1257;99187;-77
2023/11/12 04:12:10;;;;;;;56.60;25.10;;;;;;;5.68;100.00;99380.21;105851;1258;98601;-79
2023/11/12 04:14:56;;;;;;;52.40;24.10;;;;;;;5.67;100.00;99377.86;105735;1255;99340;-77
2023/11/12 04:17:42;;;;;;;54.70;25.60;;;;;;;5.65;100.00;99379.05;106001;1254;97986;-79
2023/11/12 04:20:28;;;;;;;57.20;24.90;;;;;;;5.64;100.00;99382.86;105811;1267;101274;-78
2023/11/12 04:23:14;;;;;;;55.20;26.60;;;;;;;5.65;100.00;99380.82;105939;1260;100315;-78
2023/11/12 04:26:01;;;;;;;57.80;25.20;;;;;;;5.65;100.00;99383.94;105494;1260;99069;-77
2023/11/12 04:28:47;;;;;;;52.20;23.70;;;;;;;5.67;100.00;99387.10;105549;1259;98328;-78
2023/11/12 04:31:35;;;;;;;51.00;24.60;;;;;;;5.68;100.00;99383.27;105587;1259;98467;-77
2023/11/12 04:34:21;;;;;;;53.00;23.90;;;;;;;5.68;100.00;99385.16;105883;1254;103044;-79
2023/11/12 04:37:07;;;;;;;50.80;25.00;;;;;;;5.71;100.00;99389.31;105841;1254;99174;-78
2023/11/12 04:39:53;;;;;;;56.20;25.30;;;;;;;5.72;100.00;99388.46;105851;1258;98682;-77
2023/11/12 04:42:39;;;;;;;48.90;25.00;;;;;;;5.72;100.00;99388.34;105791;1258;97946;-77
2023/11/12 04:45:24;;;;;;;55.60;27.00;;;;;;;5.73;100.00;99392.90;105770;1254;97765;-77
2023/11/12 04:48:11;;;;;;;53.40;25.40;;;;;;;5.74;100.00;99391.90;105628;1259;101423;-78
2023/11/12 04:50:56;;;;;;;63.50;28.80;;;;;;;5.74;100.00;99391.48;105714;1258;100028;-77
2023/11/12 04:53:42;;;;;;;60.30;26.90;;;;;;;5.74;100.00;99391.70;105830;1261;98581;-78
2023/11/12 04:56:28;;;;;;;68.60;28.90;;;;;;;5.75;100.00;99391.95;105749;1257;97973;-77
2023/11/12 04:59:15;;;;;;;65.60;30.60;;;;;;;5.76;100.00;99390.37;105723;1260;97957;-78
2023/11/12 05:02:00;;;;;;;76.00;32.20;;;;;;;5.78;100.00;99396.02;105767;1259;102786;-77
2023/11/12 05:04:46;;;;;;;79.50;33.40;;;;;;;5.77;100.00;99399.80;105794;1257;99260;-78
2023/11/12 05:07:31;;;;;;;75.50;32.50;;;;;;;5.77;100.00;99401.80;105713;1258;97961;-78
2023/11/12 05:10:17;;;;;;;67.80;29.20;;;;;;;5.77;100.00;99398.23;105610;1260;98050;-78
2023/11/12 05:13:03;;;;;;;77.40;32.70;;;;;;;5.79;100.00;99397.35;105703;1259;98370;-78
2023/11/12 05:15:48;;;;;;;78.00;32.10;;;;;;;5.81;100.00;99400.48;105841;1259;101398;-77
2023/11/12 05:18:34;;;;;;;68.50;31.40;;;;;;;5.82;100.00;99407.37;105689;1259;100369;-77
2023/11/12 05:21:20;;;;;;;69.00;30.80;;;;;;;5.82;100.00;99410.15;105464;1260;98444;-77
2023/11/12 05:24:06;;;;;;;57.30;28.80;;;;;;;5.83;100.00;99414.73;105651;1253;99322;-77
2023/11/12 05:26:52;;;;;;;62.40;29.70;;;;;;;5.83;100.00;99414.70;105687;1260;98507;-78
2023/11/12 05:29:38;;;;;;;56.20;28.30;;;;;;;5.83;100.00;99419.32;105623;1260;101393;-78
2023/11/12 05:32:24;;;;;;;52.80;27.30;;;;;;;5.82;100.00;99421.67;105655;1254;100408;-78
2023/11/12 05:35:10;;;;;;;56.10;26.90;;;;;;;5.84;100.00;99426.33;105751;1253;99040;-77
2023/11/12 05:37:56;;;;;;;53.40;28.20;;;;;;;5.85;100.00;99427.11;105789;1260;97871;-77
2023/11/12 05:40:42;;;;;;;52.90;26.60;;;;;;;5.86;100.00;99426.73;105644;1270;98193;-77
2023/11/12 05:43:27;;;;;;;58.60;29.30;;;;;;;5.88;100.00;99431.27;105586;1254;101340;-80
2023/11/12 05:46:13;;;;;;;59.70;28.10;;;;;;;5.89;100.00;99432.62;105764;1254;99116;-77
2023/11/12 05:48:59;;;;;;;47.70;24.30;;;;;;;5.88;100.00;99441.97;105694;1260;97958;-78
2023/11/12 05:51:44;;;;;;;47.80;23.30;;;;;;;5.84;100.00;99441.85;105628;1259;98035;-78
2023/11/12 05:54:30;;;;;;;42.40;22.10;;;;;;;5.83;100.00;99445.66;105887;1258;97957;-78
2023/11/12 05:57:16;;;;;;;41.20;22.60;;;;;;;5.84;100.00;99450.05;105673;1267;102668;-77
2023/11/12 06:00:06;;;;;;;40.60;22.30;;;;;;;5.84;100.00;99447.43;105702;1253;100257;-78
2023/11/12 06:02:57;;;;;;;36.10;20.50;;;;;;;5.81;100.00;99451.45;107861;1255;99074;-78
2023/11/12 06:05:42;;;;;;;37.30;20.10;;;;;;;5.79;100.00;99450.98;105610;1260;97967;-77
2023/11/12 06:08:28;;;;;;;31.50;18.10;;;;;;;5.77;100.00;99453.51;105677;1260;98452;-79
2023/11/12 06:11:14;;;;;;;33.40;19.00;;;;;;;5.75;100.00;99457.91;105850;1259;102603;-78
2023/11/12 06:14:00;;;;;;;31.70;18.70;;;;;;;5.72;100.00;99457.50;105693;1259;100133;-78
2023/11/12 06:16:45;;;;;;;34.40;18.30;;;;;;;5.71;100.00;99464.66;105514;1260;98678;-78
2023/11/12 06:19:31;;;;;;;36.40;19.00;;;;;;;5.71;100.00;99469.68;105451;1270;97953;-77
2023/11/12 06:22:17;;;;;;;35.90;19.30;;;;;;;5.69;100.00;99468.30;105516;1260;98378;-77
2023/11/12 06:25:03;;;;;;;35.40;19.70;;;;;;;5.70;100.00;99467.70;105548;1258;101451;-77
2023/11/12 06:27:49;;;;;;;38.40;19.90;;;;;;;5.69;100.00;99463.73;105470;1267;98998;-77
2023/11/12 06:30:35;;;;;;;35.20;19.00;;;;;;;5.66;100.00;99465.55;105555;1267;97932;-77
2023/11/12 06:33:21;;;;;;;40.50;20.60;;;;;;;5.63;100.00;99470.17;105636;1254;97952;-77
2023/11/12 06:36:07;;;;;;;37.00;19.90;;;;;;;5.59;100.00;99469.05;105660;1259;98500;-77
2023/11/12 06:38:53;;;;;;;40.60;20.30;;;;;;;5.53;100.00;99471.98;105612;1265;101354;-77
2023/11/12 06:41:41;;;;;;;40.20;19.80;;;;;;;5.47;100.00;99469.50;105663;1268;100325;-77
2023/11/12 06:44:26;;;;;;;36.70;19.00;;;;;;;5.44;100.00;99471.34;105519;1258;98842;-78
2023/11/12 06:47:14;;;;;;;32.40;17.50;;;;;;;5.41;100.00;99472.38;105676;1267;97949;-77
2023/11/12 06:49:59;;;;;;;35.30;17.20;;;;;;;5.38;100.00;99473.00;105633;1259;98351;-78
2023/11/12 06:52:45;;;;;;;35.80;19.10;;;;;;;5.35;100.00;99479.98;105722;1267;102972;-78
2023/11/12 06:55:32;;;;;;;39.90;18.80;;;;;;;5.35;100.00;99478.58;105658;1257;99137;-79
2023/11/12 06:58:18;;;;;;;37.30;20.50;;;;;;;5.38;100.00;99480.55;105766;1267;97941;-78
2023/11/12 07:01:04;;;;;;;33.70;18.60;;;;;;;5.39;100.00;99480.23;105602;1259;97994;-77
2023/11/12 07:03:50;;;;;;;31.30;18.10;;;;;;;5.38;100.00;99481.16;105481;1259;98481;-77
2023/11/12 07:06:36;;;;;;;27.60;16.20;;;;;;;5.35;100.00;99481.73;105581;1257;102583;-77
2023/11/12 07:09:23;;;;;;;28.90;16.00;;;;;;;5.30;100.00;99480.88;105541;1259;99169;-78
2023/11/12 07:12:08;;;;;;;29.90;16.70;;;;;;;5.30;100.00;99487.32;105674;1267;98072;-77
2023/11/12 07:14:55;;;;;;;29.60;16.10;;;;;;;5.30;100.00;99487.04;105679;1258;98002;-78
2023/11/12 07:17:41;;;;;;;30.00;16.30;;;;;;;5.25;100.00;99489.20;105754;1254;97949;-76
2023/11/12 07:20:32;;;;;;;28.60;15.80;;;;;;;5.22;100.00;99493.57;105598;1253;101924;-76
2023/11/12 07:23:17;;;;;;;27.00;16.10;;;;;;;5.22;100.00;99493.39;105667;1263;99221;-79
2023/11/12 07:26:03;;;;;;;30.30;16.40;;;;;;;5.23;100.00;99497.41;105550;1259;98507;-77
2023/11/12 07:28:49;;;;;;;36.70;18.90;;;;;;;5.25;100.00;99495.34;105623;1258;97957;-78
2023/11/12 07:31:35;;;;;;;45.90;21.00;;;;;;;5.27;100.00;99499.69;105592;1254;97871;-78
2023/11/12 07:34:22;;;;;;;36.60;20.20;;;;;;;5.27;100.00;99505.53;105674;1260;101395;-77
2023/11/12 07:37:07;;;;;;;39.30;19.90;;;;;;;5.27;100.00;99509.98;105603;1257;99087;-77
2023/11/12 07:39:53;;;;;;;40.30;21.50;;;;;;;5.28;100.00;99510.86;105788;1254;99574;-77
2023/11/12 07:42:39;;;;;;;40.80;19.60;;;;;;;5.26;100.00;99511.44;105534;1258;98643;-76
2023/11/12 07:45:24;;;;;;;39.00;20.60;;;;;;;5.24;100.00;99516.10;105586;1254;99132;-77
2023/11/12 07:48:10;;;;;;;44.90;22.60;;;;;;;5.26;100.00;99514.30;105752;1260;101353;-77
2023/11/12 07:50:59;;;;;;;44.60;21.30;;;;;;;5.30;100.00;99518.61;105577;1267;100084;-77
2023/11/12 07:53:45;;;;;;;40.30;19.80;;;;;;;5.32;100.00;99518.33;105602;1258;97877;-77
2023/11/12 07:56:31;;;;;;;40.70;22.50;;;;;;;5.30;100.00;99524.52;105556;1257;98952;-78
2023/11/12 07:59:16;;;;;;;40.60;23.30;;;;;;;5.25;100.00;99529.17;105634;1257;97890;-77
2023/11/12 08:02:02;;;;;;;40.40;22.00;;;;;;;5.25;100.00;99536.02;105492;1254;102827;-77
2023/11/12 08:04:48;;;;;;;44.40;22.70;;;;;;;5.29;100.00;99533.21;105610;1255;99039;-76
2023/11/12 08:07:35;;;;;;;41.30;22.10;;;;;;;5.32;100.00;99539.40;105873;1258;97877;-82
2023/11/12 08:10:21;;;;;;;38.10;21.80;;;;;;;5.33;100.00;99537.44;106511;1254;97768;-81
2023/11/12 08:13:07;;;;;;;42.40;23.30;;;;;;;5.34;100.00;99535.59;106130;1254;98399;-76
2023/11/12 08:15:53;;;;;;;42.10;22.70;;;;;;;5.35;100.00;99540.67;105481;1254;103572;-76
2023/11/12 08:18:39;;;;;;;39.50;22.10;;;;;;;5.36;100.00;99543.40;105670;1260;99949;-80
2023/11/12 08:21:25;;;;;;;34.70;20.80;;;;;;;5.34;100.00;99544.14;106436;1258;97992;-81
2023/11/12 08:24:11;;;;;;;36.30;20.90;;;;;;;5.34;100.00;99548.61;106576;1254;97954;-81
2023/11/12 08:26:56;;;;;;;36.60;20.70;;;;;;;5.37;100.00;99552.52;106241;1254;98396;-82
2023/11/12 08:29:42;;;;;;;39.30;21.80;;;;;;;5.41;100.00;99554.70;106316;1254;101471;-81
2023/11/12 08:32:28;;;;;;;36.50;21.80;;;;;;;5.46;100.00;99552.83;106203;1257;99112;-80
2023/11/12 08:35:14;;;;;;;39.40;21.80;;;;;;;5.52;100.00;99554.55;106235;1254;98322;-82
2023/11/12 08:38:00;;;;;;;33.20;19.90;;;;;;;5.57;100.00;99551.53;106302;1259;97924;-81
2023/11/12 08:40:45;;;;;;;33.90;19.00;;;;;;;5.56;100.00;99553.77;106151;1254;98157;-82
2023/11/12 08:43:32;;;;;;;33.20;20.20;;;;;;;5.54;100.00;99556.15;106146;1254;102381;-81
2023/11/12 08:46:19;;;;;;;35.20;21.10;;;;;;;5.55;100.00;99558.20;106411;1257;100599;-84
2023/11/12 08:49:06;;;;;;;31.30;19.80;;;;;;;5.54;100.00;99560.77;106145;1256;98074;-82
2023/11/12 08:51:52;;;;;;;39.20;22.00;;;;;;;5.55;100.00;99566.90;106084;1254;97874;-81
2023/11/12 08:54:38;;;;;;;37.10;21.50;;;;;;;5.54;100.00;99569.14;106393;1254;98335;-80
2023/11/12 08:57:24;;;;;;;36.70;21.50;;;;;;;5.56;100.00;99572.77;106121;1260;101326;-84
2023/11/12 09:00:11;;;;;;;41.30;23.10;;;;;;;5.59;100.00;99577.22;106280;1254;100870;-80
2023/11/12 09:02:57;;;;;;;36.30;21.20;;;;;;;5.57;100.00;99584.73;106204;1258;97821;-85
2023/11/12 09:05:44;;;;;;;42.50;23.90;;;;;;;5.52;100.00;99584.19;106483;1254;97941;-83
2023/11/12 09:08:30;;;;;;;37.90;20.60;;;;;;;5.49;100.00;99592.14;106344;1257;98574;-85
2023/11/12 09:11:16;;;;;;;36.20;21.40;;;;;;;5.46;100.00;99594.14;106479;1257;102329;-86
2023/11/12 09:14:04;;;;;;;37.00;20.70;;;;;;;5.40;100.00;99599.92;106342;1254;100481;-77
2023/11/12 09:16:50;;;;;;;37.70;21.20;;;;;;;5.35;100.00;99597.70;105467;1260;99052;-82
2023/11/12 09:19:35;;;;;;;42.40;22.80;;;;;;;5.32;100.00;99596.65;106174;1260;97984;-84
2023/11/12 09:22:22;;;;;;;45.90;26.30;;;;;;;5.27;100.00;99599.02;106275;1259;97957;-83
2023/11/12 09:25:09;;;;;;;47.10;24.60;;;;;;;5.25;100.00;99598.04;106124;1254;101357;-84
2023/11/12 09:27:55;;;;;;;50.10;26.70;;;;;;;5.23;100.00;99599.45;106277;1255;100626;-85
2023/11/12 09:30:42;;;;;;;52.20;27.70;;;;;;;5.23;100.00;99599.65;106217;1260;98395;-83
2023/11/12 09:33:27;;;;;;;57.90;29.40;;;;;;;5.25;100.00;99595.20;106355;1260;99318;-80
2023/11/12 09:36:13;;;;;;;55.70;29.50;;;;;;;5.29;100.00;99598.27;106951;1254;98392;-80
2023/11/12 09:39:00;;;;;;;51.30;27.40;;;;;;;5.35;100.00;99601.09;106853;1254;103008;-79
2023/11/12 09:41:51;;;;;;;57.50;29.00;;;;;;;5.41;100.00;99603.60;106628;1254;99697;-82
2023/11/12 09:44:38;;;;;;;56.80;30.00;;;;;;;5.45;100.00;99608.61;106676;1259;98730;-77
2023/11/12 09:47:33;;;;;;;62.90;32.50;;;;;;;5.46;100.00;99605.05;105611;1255;98219;-77
2023/11/12 09:50:30;;;;;;;62.20;32.70;;;;;;;5.50;100.00;99605.23;105467;1257;98510;-78
2023/11/12 09:53:17;;;;;;;68.20;34.10;;;;;;;5.50;100.00;99601.27;105480;1260;101333;-75
2023/11/12 09:56:08;;;;;;;69.70;37.20;;;;;;;5.54;100.00;99602.36;105637;1254;100737;-76
2023/11/12 09:58:54;;;;;;;75.70;38.10;;;;;;;5.59;100.00;99603.45;105569;1254;99119;-77
2023/11/12 10:01:40;;;;;;;76.60;38.90;;;;;;;5.60;100.00;99603.08;106006;1254;97975;-77
2023/11/12 10:04:26;;;;;;;76.20;38.10;;;;;;;5.61;100.00;99597.89;105603;1257;98027;-76
2023/11/12 10:07:11;;;;;;;76.10;39.40;;;;;;;5.62;100.00;99597.91;105593;1263;101387;-76
2023/11/12 10:10:22;;;;;;;80.00;40.10;;;;;;;5.66;100.00;99602.05;105584;1260;100462;-77
2023/11/12 10:13:09;;;;;;;82.80;41.40;;;;;;;5.74;100.00;99601.79;105605;1257;97985;-75
2023/11/12 10:15:55;;;;;;;76.70;37.00;;;;;;;5.83;100.00;99602.89;106789;1254;98461;-85
2023/11/12 10:18:41;;;;;;;76.50;41.30;;;;;;;5.89;100.00;99608.81;106324;1254;97997;-76
2023/11/12 10:21:26;;;;;;;82.70;44.20;;;;;;;5.94;100.00;99612.82;105610;1255;102159;-77
2023/11/12 10:24:12;;;;;;;82.00;45.50;;;;;;;6.00;100.00;99611.67;105593;1254;99099;-76
2023/11/12 10:27:03;;;;;;;82.30;43.80;;;;;;;6.08;100.00;99615.30;105672;1257;99525;-76
2023/11/12 10:29:49;;;;;;;80.60;42.00;;;;;;;6.16;100.00;99611.34;105496;1257;98002;-78
2023/11/12 10:32:35;;;;;;;78.80;41.40;;;;;;;6.21;100.00;99606.64;105644;1257;98021;-77
2023/11/12 10:35:28;;;;;;;69.20;40.80;;;;;;;6.27;100.00;99599.19;105530;1259;101331;-76
2023/11/12 10:38:18;;;;;;;77.00;42.80;;;;;;;6.35;100.00;99595.61;105581;1254;100283;-77
2023/11/12 10:41:05;;;;;;;61.60;37.10;;;;;;;6.43;100.00;99591.06;105491;1253;98011;-76
2023/11/12 10:43:58;;;;;;;63.40;36.90;;;;;;;6.52;100.00;99592.20;105547;1253;98044;-78
2023/11/12 10:46:52;;;;;;;60.80;34.20;;;;;;;6.60;100.00;99592.67;106259;1256;98376;-76
2023/11/12 10:49:40;;;;;;;57.00;32.80;;;;;;;6.66;100.00;99596.36;105948;1256;101476;-76
2023/11/12 10:52:28;;;;;;;54.80;32.80;;;;;;;6.68;100.00;99596.49;106159;1254;99149;-85
2023/11/12 10:55:16;;;;;;;57.80;34.10;;;;;;;6.67;100.00;99599.96;106539;1260;99001;-79
2023/11/12 10:58:03;;;;;;;56.90;35.30;;;;;;;6.67;100.00;99598.83;106183;1257;98078;-76
2023/11/12 11:00:48;;;;;;;64.30;38.30;;;;;;;6.74;100.00;99595.92;105445;1257;98398;-76
2023/11/12 11:03:34;;;;;;;65.20;38.60;;;;;;;6.81;100.00;99598.17;105422;1254;101464;-77
2023/11/12 11:06:21;;;;;;;68.80;40.40;;;;;;;6.87;100.00;99595.80;105697;1254;100342;-76
2023/11/12 11:09:08;;;;;;;67.40;37.70;;;;;;;6.95;100.00;99595.42;105578;1254;98879;-77
2023/11/12 11:11:54;;;;;;;61.10;37.40;;;;;;;7.04;100.00;99596.31;105407;1258;98161;-76
2023/11/12 11:14:40;;;;;;;71.20;40.40;;;;;;;7.13;100.00;99597.79;105567;1254;98393;-76
2023/11/12 11:17:36;;;;;;;71.10;40.50;;;;;;;7.22;100.00;99596.83;105388;1254;103511;-76
2023/11/12 11:20:23;;;;;;;73.80;39.60;;;;;;;7.31;100.00;99597.65;105509;1254;99075;-76
2023/11/12 11:23:39;;;;;;;69.80;40.70;;;;;;;7.36;100.00;99599.88;105399;1257;99628;-76
2023/11/12 11:26:33;;;;;;;59.20;36.50;;;;;;;7.37;100.00;99599.39;105411;1257;98353;-76
2023/11/12 11:29:18;;;;;;;63.20;36.90;;;;;;;7.37;100.00;99597.63;105439;1257;98472;-76
2023/11/12 11:32:07;;;;;;;60.00;35.80;;;;;;;7.36;100.00;99597.81;105446;1257;101389;-75
2023/11/12 11:34:53;;;;;;;59.30;33.70;;;;;;;7.37;100.00;99598.00;105440;1253;99051;-76
2023/11/12 11:38:11;;;;;;;57.70;33.70;;;;;;;7.42;100.00;99600.23;106964;1254;97973;-76
2023/11/12 11:40:57;;;;;;;50.40;33.00;;;;;;;7.48;100.00;99602.25;106406;1254;97914;-75
2023/11/12 11:43:43;;;;;;;51.20;31.70;;;;;;;7.52;100.00;99599.41;106406;1253;97928;-76
2023/11/12 11:46:29;;;;;;;48.90;31.40;;;;;;;7.56;100.00;99595.30;105573;1256;101323;-76
2023/11/12 11:49:18;;;;;;;50.90;31.80;;;;;;;7.60;100.00;99600.88;105537;1255;99113;-77
2023/11/12 11:52:07;;;;;;;46.60;31.30;;;;;;;7.61;100.00;99603.55;105450;1254;113371;-76
2023/11/12 11:55:05;;;;;;;46.10;29.70;;;;;;;7.63;100.00;99602.70;105541;1253;99298;-77
2023/11/12 11:57:54;;;;;;;42.70;27.00;;;;;;;7.64;100.00;99600.59;105632;1257;98580;-77
2023/11/12 12:00:57;;;;;;;44.70;28.20;;;;;;;7.67;100.00;99594.49;105803;1253;102643;-76
2023/11/12 12:03:43;;;;;;;38.50;26.00;;;;;;;7.71;100.00;99592.27;105447;1257;100438;-76
2023/11/12 12:06:29;;;;;;;38.80;25.10;;;;;;;7.75;100.00;99594.73;105518;1257;99575;-76
2023/11/12 12:09:17;;;;;;;35.10;23.90;;;;;;;7.77;100.00;99598.16;105621;1254;98205;-76
2023/11/12 12:12:03;;;;;;;36.70;23.00;;;;;;;7.78;100.00;99600.88;105470;1254;98603;-76
2023/11/12 12:14:49;;;;;;;33.70;22.40;;;;;;;7.77;100.00;99604.59;105402;1257;101345;-76
2023/11/12 12:17:38;;;;;;;36.00;22.90;;;;;;;7.76;100.00;99609.45;105431;1258;99142;-76
2023/11/12 12:20:37;;;;;;;37.50;23.40;;;;;;;7.76;100.00;99612.87;105204;1261;98454;-76
2023/11/12 12:23:25;;;;;;;34.70;23.50;;;;;;;7.77;100.00;99615.75;105597;1253;99129;-77
2023/11/12 12:26:11;;;;;;;35.00;22.70;;;;;;;7.77;100.00;99614.52;105537;1257;98491;-76
2023/11/12 12:28:57;;;;;;;38.50;23.60;;;;;;;7.78;100.00;99611.61;105432;1257;101348;-76
2023/11/12 12:31:46;;;;;;;33.10;21.70;;;;;;;7.79;100.00;99615.19;105619;1254;99867;-77
2023/11/12 12:34:39;;;;;;;34.10;21.90;;;;;;;7.78;100.00;99615.10;105449;1254;97886;-76
2023/11/12 12:37:30;;;;;;;31.90;20.70;;;;;;;7.78;100.00;99610.55;105455;1253;98083;-77